»·PEaware :: N614FT KBUR-KLAS

N614FT :: KBUR-KLAS

FLIGHT INFORMATION

Flight Status: Arrived
Operator: Privately registered:
United States
More flights under this callsign
Pilot: Carlos A. (16805)
Aircraft: PIPER PA-31/31P NAVAJO CHIEFTAIN
(PA31)
More flights by this aircraft type
Origin: KBUR Bob Hope-Burbank
United States
Destination: KLAS Harry Reid Intl
United States
More flights between these airports :: More routes between these airports
Route: VNY3 DAG CRESO5
File this flight plan on PilotEdge
Remarks:
Altitude:
(Current/Filed)
9,000ft
Speed:
(Current/Filed)
185kts
Departed: 18-Jan-23 09:02 PM
Arrived: 18-Jan-23 10:16 PM
Distance/Time
Traveled:
40nm/1:14
Distance/Time
To Go:
Arrived

Flight Plot

Page will automatically refresh every two minutes.

Flight plan parsing failed; only flown route is shown


Map Options




Map Legend


Flown Route
Filed Route
Departure Airport
Arrival Airport
Navaid (VOR, NDB)
Fix

Horizontal Profiles

Position Reports

Time Latitude Longitude Heading Altitude Ground
Speed
18-Jan-23 20:46 34.200109 -118.364523 358 782ft 0kts
18-Jan-23 20:47 34.200110 -118.364523 358 782ft 0kts
18-Jan-23 20:48 34.200112 -118.364523 358 782ft 0kts
18-Jan-23 20:49 34.200113 -118.364523 358 782ft 0kts
18-Jan-23 20:50 34.199883 -118.364506 169 782ft 2kts
18-Jan-23 20:51 34.198961 -118.367539 272 782ft 23kts
18-Jan-23 20:52 34.198609 -118.368980 172 782ft 0kts
18-Jan-23 20:53 34.198608 -118.368980 172 782ft 0kts
18-Jan-23 20:54 34.198606 -118.368980 172 782ft 0kts
18-Jan-23 20:55 34.198605 -118.368979 172 782ft 0kts
18-Jan-23 20:56 34.198603 -118.368979 172 782ft 0kts
18-Jan-23 20:57 34.198602 -118.368979 172 782ft 0kts
18-Jan-23 20:58 34.198600 -118.368979 172 782ft 0kts
18-Jan-23 20:59 34.198599 -118.368978 172 782ft 0kts
18-Jan-23 21:00 34.197915 -118.368810 96 782ft 5kts
18-Jan-23 21:01 34.194334 -118.347591 123 1458ft 106kts
18-Jan-23 21:02 34.168451 -118.343422 217 2903ft 111kts
18-Jan-23 21:04 34.149414 -118.368868 258 4335ft 117kts
18-Jan-23 21:05 34.170674 -118.393076 355 6144ft 110kts
18-Jan-23 21:06 34.205379 -118.396490 355 7463ft 119kts
18-Jan-23 21:07 34.243187 -118.407908 342 8354ft 132kts
18-Jan-23 21:08 34.281194 -118.421628 343 9060ft 152kts
18-Jan-23 21:09 34.329032 -118.441444 338 9168ft 201kts
18-Jan-23 21:10 34.384167 -118.463427 1 9120ft 198kts
18-Jan-23 21:11 34.424349 -118.416238 60 8842ft 209kts
18-Jan-23 21:12 34.454484 -118.355519 49 8815ft 210kts
18-Jan-23 21:13 34.489803 -118.298698 50 8895ft 205kts
18-Jan-23 21:14 34.527230 -118.245159 47 8832ft 212kts
18-Jan-23 21:15 34.563498 -118.190528 54 8975ft 214kts
18-Jan-23 21:16 34.596347 -118.130822 54 8968ft 209kts
18-Jan-23 21:17 34.629306 -118.072089 57 8958ft 212kts
18-Jan-23 21:18 34.645040 -118.003789 83 8922ft 215kts
18-Jan-23 21:19 34.646461 -117.931275 78 8842ft 216kts
18-Jan-23 21:20 34.656149 -117.859904 85 8971ft 210kts
18-Jan-23 21:21 34.666755 -117.788957 78 8942ft 215kts
18-Jan-23 21:22 34.677692 -117.717155 78 8878ft 216kts
18-Jan-23 21:23 34.693860 -117.647317 70 8865ft 215kts
18-Jan-23 21:24 34.715769 -117.580315 68 9057ft 210kts
18-Jan-23 21:25 34.733455 -117.511331 69 9045ft 214kts
18-Jan-23 21:26 34.756770 -117.444821 64 9114ft 214kts
18-Jan-23 21:27 34.784017 -117.379572 67 9057ft 217kts
18-Jan-23 21:28 34.802752 -117.310306 72 9050ft 216kts
18-Jan-23 21:29 34.819080 -117.241408 75 9304ft 211kts
18-Jan-23 21:30 34.832243 -117.173194 80 9801ft 211kts
18-Jan-23 21:31 34.842967 -117.103334 78 10314ft 211kts
18-Jan-23 21:31 34.854168 -117.045502 66 10710ft 210kts
18-Jan-23 21:33 34.868597 -116.962338 74 10931ft 219kts
18-Jan-23 21:34 34.888956 -116.892207 62 10977ft 219kts
18-Jan-23 21:35 34.912770 -116.823015 69 10911ft 222kts
18-Jan-23 21:36 34.928580 -116.750561 74 10948ft 222kts
18-Jan-23 21:36 34.938342 -116.688898 82 10911ft 225kts
18-Jan-23 21:37 34.951749 -116.615391 73 10906ft 223kts
18-Jan-23 21:38 34.971746 -116.544940 56 10896ft 221kts
18-Jan-23 21:40 35.011229 -116.473455 65 10889ft 221kts
18-Jan-23 21:41 35.035742 -116.404955 64 10926ft 221kts
18-Jan-23 21:41 35.056855 -116.348580 62 10939ft 221kts
18-Jan-23 21:42 35.083688 -116.281433 59 10968ft 220kts
18-Jan-23 21:43 35.116372 -116.219137 52 10971ft 219kts
18-Jan-23 21:44 35.149077 -116.156365 55 10930ft 220kts
18-Jan-23 21:45 35.183061 -116.094505 51 10900ft 218kts
18-Jan-23 21:46 35.219252 -116.035488 60 10838ft 219kts
18-Jan-23 21:47 35.246748 -115.969343 63 10948ft 216kts
18-Jan-23 21:48 35.274659 -115.903701 62 10932ft 219kts
18-Jan-23 21:49 35.299377 -115.835927 61 10987ft 216kts
18-Jan-23 21:50 35.329990 -115.771885 56 10948ft 217kts
18-Jan-23 21:51 35.363323 -115.710861 51 10988ft 216kts
18-Jan-23 21:52 35.397338 -115.649466 49 10968ft 216kts
18-Jan-23 21:53 35.436878 -115.594448 45 10955ft 216kts
18-Jan-23 21:54 35.476734 -115.539394 43 10932ft 216kts
18-Jan-23 21:55 35.519719 -115.488386 39 10959ft 214kts
18-Jan-23 21:56 35.562072 -115.436622 53 10832ft 221kts
18-Jan-23 21:57 35.594686 -115.374880 35 10828ft 210kts
18-Jan-23 21:58 35.635271 -115.322765 49 10961ft 213kts
18-Jan-23 21:59 35.676586 -115.269714 40 10968ft 211kts
18-Jan-23 22:00 35.720491 -115.220003 39 10876ft 215kts
18-Jan-23 22:01 35.764202 -115.171007 35 10993ft 212kts
18-Jan-23 22:02 35.810382 -115.126215 46 11001ft 216kts
18-Jan-23 22:03 35.849690 -115.070428 49 11034ft 214kts
18-Jan-23 22:04 35.882788 -115.009054 55 10087ft 218kts
18-Jan-23 22:05 35.920197 -114.952602 47 9329ft 210kts
18-Jan-23 22:06 35.961667 -114.903213 40 8655ft 205kts
18-Jan-23 22:07 36.007634 -114.861253 25 8148ft 208kts
18-Jan-23 22:08 36.061907 -114.842296 13 8006ft 201kts
18-Jan-23 22:09 36.075100 -114.885608 268 6343ft 182kts
18-Jan-23 22:10 36.073654 -114.945809 269 5523ft 168kts
18-Jan-23 22:11 36.073810 -115.005204 274 4199ft 176kts
18-Jan-23 22:12 36.073878 -115.059551 270 3338ft 127kts
18-Jan-23 22:13 36.074011 -115.098436 269 2692ft 96kts
18-Jan-23 22:14 36.073682 -115.130816 264 2185ft 69kts
18-Jan-23 22:15 36.074267 -115.133808 0 2185ft 0kts
18-Jan-23 22:16 36.074268 -115.133808 0 2185ft 0kts
18-Jan-23 22:17 36.074722 -115.133811 357 2185ft 19kts
18-Jan-23 22:18 36.078632 -115.133751 359 2185ft 12kts
18-Jan-23 22:19 36.079890 -115.134083 305 2185ft 0kts
18-Jan-23 22:20 36.079891 -115.134084 305 2185ft 0kts
18-Jan-23 22:21 36.079891 -115.134085 305 2185ft 0kts
18-Jan-23 22:22 36.079891 -115.134085 305 2185ft 0kts
18-Jan-23 22:23 36.079891 -115.134085 305 2185ft 0kts
18-Jan-23 22:24 33.675603 -117.871261 22 60ft 0kts

Navigation Log

Ident Type
Flight plan parsing failed, navigation log unavailable